createdAt,value
2022-08-21T00:01:23.516Z,35.9
2022-08-21T00:06:54.262Z,35.9
2022-08-21T00:12:32.011Z,35.9
2022-08-21T00:18:02.963Z,35.9
2022-08-21T00:23:24.945Z,35.9
2022-08-21T00:29:05.873Z,35.8
2022-08-21T00:34:53.320Z,35.8
2022-08-21T00:40:30.768Z,35.8
2022-08-21T00:46:34.370Z,35.8
2022-08-21T00:52:16.046Z,35.8
2022-08-21T00:58:07.827Z,35.7
2022-08-21T01:03:48.494Z,35.7
2022-08-21T01:09:26.218Z,35.7
2022-08-21T01:15:10.451Z,35.7
2022-08-21T01:20:32.233Z,35.7
2022-08-21T01:26:15.111Z,35.6
2022-08-21T01:31:59.407Z,35.6
2022-08-21T01:37:36.608Z,35.6
2022-08-21T01:43:14.899Z,35.6
2022-08-21T01:48:59.830Z,35.5
2022-08-21T01:54:23.862Z,35.5
2022-08-21T01:59:39.176Z,35.5
2022-08-21T02:05:33.755Z,35.4
2022-08-21T02:11:12.159Z,35.4
2022-08-21T02:16:50.555Z,35.4
2022-08-21T02:22:51.997Z,35.4
2022-08-21T02:28:34.298Z,35.4
2022-08-21T02:33:55.326Z,35.4
2022-08-21T02:39:43.727Z,35.4
2022-08-21T02:45:07.471Z,35.3
2022-08-21T02:50:44.484Z,35.3
2022-08-21T02:56:21.036Z,35.3
2022-08-21T03:01:41.535Z,35.3
2022-08-21T03:07:18.630Z,35.3
2022-08-21T03:12:48.518Z,35.3
2022-08-21T03:18:36.024Z,35.2
2022-08-21T03:24:23.400Z,35.2
2022-08-21T03:30:04.486Z,35.2
2022-08-21T03:35:44.097Z,35.1
2022-08-21T03:41:05.357Z,35.1
2022-08-21T03:46:41.757Z,35.1
2022-08-21T03:52:03.141Z,35.1
2022-08-21T03:57:15.592Z,35.1
2022-08-21T04:02:47.338Z,35.1
2022-08-21T04:08:32.342Z,35.1
2022-08-21T04:14:15.889Z,35
2022-08-21T04:19:53.891Z,35
2022-08-21T04:25:52.490Z,34.9
2022-08-21T04:31:35.370Z,34.9
2022-08-21T04:37:13.875Z,34.9
2022-08-21T04:43:06.605Z,34.9
2022-08-21T04:49:03.369Z,34.9
2022-08-21T04:54:42.596Z,34.9
2022-08-21T05:00:38.430Z,34.9
2022-08-21T05:05:45.791Z,34.8
2022-08-21T05:11:12.363Z,34.8
2022-08-21T05:16:53.836Z,34.8
2022-08-21T05:22:40.512Z,34.8
2022-08-21T05:28:31.126Z,34.8
2022-08-21T05:34:13.993Z,34.8
2022-08-21T05:40:37.662Z,34.8
2022-08-21T05:46:48.173Z,34.8
2022-08-21T05:52:30.574Z,34.7
2022-08-21T05:58:14.942Z,34.7
2022-08-21T06:04:01.469Z,34.7
2022-08-21T06:09:51.495Z,34.6
2022-08-21T06:15:31.695Z,34.6
2022-08-21T06:21:14.090Z,34.6
2022-08-21T06:26:56.748Z,34.6
2022-08-21T06:32:37.373Z,34.6
2022-08-21T06:38:19.522Z,34.6
2022-08-21T06:44:43.820Z,34.6
2022-08-21T06:50:10.840Z,34.5
2022-08-21T06:55:55.220Z,34.5
2022-08-21T07:01:34.226Z,34.5
2022-08-21T07:07:12.876Z,34.5
2022-08-21T07:13:00.186Z,34.5
2022-08-21T07:18:38.192Z,34.4
2022-08-21T07:24:16.812Z,40.2
2022-08-21T07:29:58.723Z,40.4
2022-08-21T07:35:37.384Z,38.9
2022-08-21T07:41:24.489Z,37.9
2022-08-21T07:47:09.320Z,37.3
2022-08-21T07:53:04.719Z,36.8
2022-08-21T07:58:50.192Z,36.4
2022-08-21T08:04:34.484Z,36.3
2022-08-21T08:10:11.457Z,42.1
2022-08-21T08:15:54.324Z,43.3
2022-08-21T08:21:31.600Z,44.1
2022-08-21T08:27:31.738Z,44.6
2022-08-21T08:33:22.643Z,45.3
2022-08-21T08:39:26.289Z,46
2022-08-21T08:45:43.190Z,46.7
2022-08-21T08:51:22.425Z,47.2
2022-08-21T08:56:49.824Z,47.1
2022-08-21T09:02:31.883Z,47.3
2022-08-21T09:08:09.464Z,47.6
2022-08-21T09:13:30.469Z,47.9
2022-08-21T09:19:13.327Z,48.3
2022-08-21T09:24:52.965Z,48.3
2022-08-21T09:30:29.390Z,48.8
2022-08-21T09:36:17.775Z,48.8
2022-08-21T09:41:45.610Z,48.5
2022-08-21T09:47:26.294Z,48.8
2022-08-21T09:53:11.252Z,48.9
2022-08-21T09:58:56.159Z,48.6
2022-08-21T10:04:41.120Z,48.5
2022-08-21T10:10:26.920Z,48
2022-08-21T10:16:07.890Z,47.6
2022-08-21T10:21:45.331Z,48
2022-08-21T10:28:12.985Z,49.9
2022-08-21T10:34:05.182Z,50.4
2022-08-21T10:40:31.741Z,50.9
2022-08-21T10:45:58.700Z,51.3
2022-08-21T10:51:45.841Z,51.8
2022-08-21T10:57:32.199Z,52.4
2022-08-21T11:02:54.410Z,52.6
2022-08-21T11:08:44.302Z,53.1
2022-08-21T11:15:06.829Z,53.8
2022-08-21T11:20:37.377Z,54.3
2022-08-21T11:26:26.100Z,54.7
2022-08-21T11:31:51.740Z,55.2
2022-08-21T11:37:36.636Z,55.4
2022-08-21T11:43:15.198Z,55.7
2022-08-21T11:48:58.013Z,56.3
2022-08-21T11:54:33.752Z,56.4
2022-08-21T12:00:13.694Z,56
2022-08-21T12:05:58.747Z,55.6
2022-08-21T12:11:47.375Z,55.1
2022-08-21T12:17:37.125Z,54.8
2022-08-21T12:23:29.417Z,54.4
2022-08-21T12:29:08.694Z,53.9
2022-08-21T12:34:45.722Z,53.6
2022-08-21T12:40:34.113Z,53.2
2022-08-21T12:46:06.933Z,52.8
2022-08-21T12:57:16.596Z,52
2022-08-21T13:02:55.107Z,51.6
2022-08-21T13:08:44.474Z,51.1
2022-08-21T13:15:03.857Z,50.7
2022-08-21T13:20:52.859Z,50.2
2022-08-21T13:27:15.043Z,49.8
2022-08-21T13:33:03.278Z,49.4
2022-08-21T13:38:43.926Z,49.2
2022-08-21T13:44:27.234Z,49.1
2022-08-21T13:49:50.298Z,48.9
2022-08-21T13:55:28.389Z,48.8
2022-08-21T14:01:06.768Z,48.4
2022-08-21T14:06:50.027Z,48.1
2022-08-21T14:12:40.262Z,47.9
2022-08-21T14:18:32.035Z,47.8
2022-08-21T14:24:10.002Z,47.5
2022-08-21T14:29:50.818Z,47.4
2022-08-21T14:36:01.028Z,47.4
2022-08-21T14:41:24.975Z,47.5
2022-08-21T14:47:29.308Z,47.1
2022-08-21T14:53:16.679Z,46.7
2022-08-21T14:59:01.410Z,46.4
2022-08-21T15:04:50.678Z,45.9
2022-08-21T15:10:44.204Z,45.6
2022-08-21T15:16:45.971Z,45.3
2022-08-21T15:22:35.600Z,45.2
2022-08-21T15:28:18.361Z,45
2022-08-21T15:34:03.909Z,44.7
2022-08-21T15:39:55.552Z,44.4
2022-08-21T15:45:42.493Z,44.1
2022-08-21T15:51:19.731Z,43.8
2022-08-21T15:57:08.178Z,43.6
2022-08-21T16:02:50.622Z,43.2
2022-08-21T16:08:49.542Z,42.9
2022-08-21T16:14:30.034Z,42.7
2022-08-21T16:19:51.539Z,42.4
2022-08-21T16:25:50.231Z,41.6
2022-08-21T16:31:40.585Z,40.4
2022-08-21T16:37:23.955Z,39.6
2022-08-21T16:43:03.481Z,39
2022-08-21T16:48:49.467Z,38.6
2022-08-21T16:54:30.948Z,38.3
2022-08-21T17:00:11.757Z,38
2022-08-21T17:05:51.133Z,37.8
2022-08-21T17:11:54.526Z,37.6
2022-08-21T17:17:34.775Z,37.4
2022-08-21T17:23:13.941Z,37.2
2022-08-21T17:28:54.287Z,37.1
2022-08-21T17:34:36.280Z,36.9
2022-08-21T17:40:16.217Z,36.8
2022-08-21T17:45:57.547Z,36.7
2022-08-21T17:51:45.369Z,36.6
2022-08-21T17:57:22.737Z,36.5
2022-08-21T18:03:09.414Z,36.4
2022-08-21T18:08:55.401Z,36.4
2022-08-21T18:14:23.357Z,36.3
2022-08-21T18:20:05.840Z,36.2
2022-08-21T18:25:56.634Z,36.1
2022-08-21T18:31:27.585Z,36.1
2022-08-21T18:37:28.713Z,36
2022-08-21T18:43:48.710Z,35.9
2022-08-21T18:49:35.188Z,35.9
